sensor_id;sensor_type;location;lat;lon;timestamp;temperature;humidity
15947;DHT22;8072;52.554;7.966;2023-04-03T00:00:25;3.60;99.90
15947;DHT22;8072;52.554;7.966;2023-04-03T00:02:51;3.60;99.90
15947;DHT22;8072;52.554;7.966;2023-04-03T00:05:17;3.50;99.90
15947;DHT22;8072;52.554;7.966;2023-04-03T00:07:42;3.50;99.90
15947;DHT22;8072;52.554;7.966;2023-04-03T00:10:08;3.50;99.90
15947;DHT22;8072;52.554;7.966;2023-04-03T00:12:34;3.40;99.90
15947;DHT22;8072;52.554;7.966;2023-04-03T00:15:00;3.40;99.90
15947;DHT22;8072;52.554;7.966;2023-04-03T00:17:26;3.40;99.90
15947;DHT22;8072;52.554;7.966;2023-04-03T00:19:51;3.40;99.90
15947;DHT22;8072;52.554;7.966;2023-04-03T00:22:17;3.40;99.90
15947;DHT22;8072;52.554;7.966;2023-04-03T00:24:43;3.30;99.90
15947;DHT22;8072;52.554;7.966;2023-04-03T00:27:09;3.30;99.90
15947;DHT22;8072;52.554;7.966;2023-04-03T00:29:36;3.30;99.90
15947;DHT22;8072;52.554;7.966;2023-04-03T00:32:02;3.30;99.90
15947;DHT22;8072;52.554;7.966;2023-04-03T00:34:28;3.20;99.90
15947;DHT22;8072;52.554;7.966;2023-04-03T00:36:54;3.20;99.90
15947;DHT22;8072;52.554;7.966;2023-04-03T00:39:19;3.20;99.90
15947;DHT22;8072;52.554;7.966;2023-04-03T00:41:45;3.10;99.90
15947;DHT22;8072;52.554;7.966;2023-04-03T00:46:59;3.10;99.90
15947;DHT22;8072;52.554;7.966;2023-04-03T00:49:26;3.10;99.90
15947;DHT22;8072;52.554;7.966;2023-04-03T00:51:52;3.10;99.90
15947;DHT22;8072;52.554;7.966;2023-04-03T00:54:19;3.10;99.90
15947;DHT22;8072;52.554;7.966;2023-04-03T00:56:45;3.00;99.90
15947;DHT22;8072;52.554;7.966;2023-04-03T00:59:14;3.00;99.90
15947;DHT22;8072;52.554;7.966;2023-04-03T01:01:42;3.00;99.90
15947;DHT22;8072;52.554;7.966;2023-04-03T01:07:02;3.00;99.90
15947;DHT22;8072;52.554;7.966;2023-04-03T01:09:31;2.90;99.90
15947;DHT22;8072;52.554;7.966;2023-04-03T01:12:21;2.90;99.90
15947;DHT22;8072;52.554;7.966;2023-04-03T01:14:54;2.90;99.90
15947;DHT22;8072;52.554;7.966;2023-04-03T01:25:52;2.70;99.90
15947;DHT22;8072;52.554;7.966;2023-04-03T01:28:30;2.70;99.90
15947;DHT22;8072;52.554;7.966;2023-04-03T01:33:50;2.60;99.90
15947;DHT22;8072;52.554;7.966;2023-04-03T01:36:25;2.50;99.90
15947;DHT22;8072;52.554;7.966;2023-04-03T01:38:52;2.50;99.90
15947;DHT22;8072;52.554;7.966;2023-04-03T01:41:19;2.50;99.90
15947;DHT22;8072;52.554;7.966;2023-04-03T01:43:47;2.40;99.90
15947;DHT22;8072;52.554;7.966;2023-04-03T01:46:14;2.40;99.90
15947;DHT22;8072;52.554;7.966;2023-04-03T01:48:40;2.40;99.90
15947;DHT22;8072;52.554;7.966;2023-04-03T01:51:05;2.40;99.90
15947;DHT22;8072;52.554;7.966;2023-04-03T01:53:31;2.40;99.90
15947;DHT22;8072;52.554;7.966;2023-04-03T01:55:57;2.40;99.90
15947;DHT22;8072;52.554;7.966;2023-04-03T01:58:22;2.30;99.90
15947;DHT22;8072;52.554;7.966;2023-04-03T02:00:48;2.30;99.90
15947;DHT22;8072;52.554;7.966;2023-04-03T02:03:14;2.30;99.90
15947;DHT22;8072;52.554;7.966;2023-04-03T02:05:40;2.30;99.90
15947;DHT22;8072;52.554;7.966;2023-04-03T02:08:06;2.30;99.90
15947;DHT22;8072;52.554;7.966;2023-04-03T02:10:32;2.20;99.90
15947;DHT22;8072;52.554;7.966;2023-04-03T02:12:58;2.20;99.90
15947;DHT22;8072;52.554;7.966;2023-04-03T02:15:24;2.20;99.90
15947;DHT22;8072;52.554;7.966;2023-04-03T02:17:50;2.20;99.90
15947;DHT22;8072;52.554;7.966;2023-04-03T02:20:16;2.20;99.90
15947;DHT22;8072;52.554;7.966;2023-04-03T02:22:42;2.20;99.90
15947;DHT22;8072;52.554;7.966;2023-04-03T02:25:08;2.10;99.90
15947;DHT22;8072;52.554;7.966;2023-04-03T02:27:35;2.00;99.90
15947;DHT22;8072;52.554;7.966;2023-04-03T02:30:02;2.00;99.90
15947;DHT22;8072;52.554;7.966;2023-04-03T02:32:28;2.00;99.90
15947;DHT22;8072;52.554;7.966;2023-04-03T02:34:55;2.00;99.90
15947;DHT22;8072;52.554;7.966;2023-04-03T02:37:21;2.00;99.90
15947;DHT22;8072;52.554;7.966;2023-04-03T02:39:46;1.90;99.90
15947;DHT22;8072;52.554;7.966;2023-04-03T02:42:12;1.90;99.90
15947;DHT22;8072;52.554;7.966;2023-04-03T02:44:38;1.90;99.90
15947;DHT22;8072;52.554;7.966;2023-04-03T02:47:05;1.80;99.90
15947;DHT22;8072;52.554;7.966;2023-04-03T02:49:31;1.80;99.90
15947;DHT22;8072;52.554;7.966;2023-04-03T02:51:57;1.80;99.90
15947;DHT22;8072;52.554;7.966;2023-04-03T02:54:23;1.70;99.90
15947;DHT22;8072;52.554;7.966;2023-04-03T02:56:53;1.70;99.90
15947;DHT22;8072;52.554;7.966;2023-04-03T02:59:19;1.70;99.90
15947;DHT22;8072;52.554;7.966;2023-04-03T03:01:45;1.70;99.90
15947;DHT22;8072;52.554;7.966;2023-04-03T03:04:11;1.70;99.90
15947;DHT22;8072;52.554;7.966;2023-04-03T03:06:37;1.70;99.90
15947;DHT22;8072;52.554;7.966;2023-04-03T03:09:04;1.60;99.90
15947;DHT22;8072;52.554;7.966;2023-04-03T03:11:31;1.60;99.90
15947;DHT22;8072;52.554;7.966;2023-04-03T03:13:57;1.60;99.90
15947;DHT22;8072;52.554;7.966;2023-04-03T03:16:23;1.50;99.90
15947;DHT22;8072;52.554;7.966;2023-04-03T03:18:49;1.50;99.90
15947;DHT22;8072;52.554;7.966;2023-04-03T03:21:15;1.40;99.90
15947;DHT22;8072;52.554;7.966;2023-04-03T03:23:41;1.40;99.90
15947;DHT22;8072;52.554;7.966;2023-04-03T03:26:08;1.40;99.90
15947;DHT22;8072;52.554;7.966;2023-04-03T03:28:35;1.40;99.90
15947;DHT22;8072;52.554;7.966;2023-04-03T03:31:02;1.40;99.90
15947;DHT22;8072;52.554;7.966;2023-04-03T03:33:28;1.40;99.90
15947;DHT22;8072;52.554;7.966;2023-04-03T03:35:54;1.40;99.90
15947;DHT22;8072;52.554;7.966;2023-04-03T03:38:20;1.40;99.90
15947;DHT22;8072;52.554;7.966;2023-04-03T03:40:50;1.40;99.90
15947;DHT22;8072;52.554;7.966;2023-04-03T03:43:18;1.40;99.90
15947;DHT22;8072;52.554;7.966;2023-04-03T03:45:44;1.30;99.90
15947;DHT22;8072;52.554;7.966;2023-04-03T03:48:12;1.30;99.90
15947;DHT22;8072;52.554;7.966;2023-04-03T03:50:37;1.30;99.90
15947;DHT22;8072;52.554;7.966;2023-04-03T03:53:03;1.30;99.90
15947;DHT22;8072;52.554;7.966;2023-04-03T03:55:29;1.30;99.90
15947;DHT22;8072;52.554;7.966;2023-04-03T03:57:55;1.30;99.90
15947;DHT22;8072;52.554;7.966;2023-04-03T04:00:21;1.30;99.90
15947;DHT22;8072;52.554;7.966;2023-04-03T04:02:47;1.30;99.90
15947;DHT22;8072;52.554;7.966;2023-04-03T04:05:13;1.20;99.90
15947;DHT22;8072;52.554;7.966;2023-04-03T04:07:40;1.20;99.90
15947;DHT22;8072;52.554;7.966;2023-04-03T04:10:08;1.10;99.90
15947;DHT22;8072;52.554;7.966;2023-04-03T04:12:33;1.10;99.90
15947;DHT22;8072;52.554;7.966;2023-04-03T04:15:01;1.10;99.90
15947;DHT22;8072;52.554;7.966;2023-04-03T04:17:27;1.10;99.90
15947;DHT22;8072;52.554;7.966;2023-04-03T04:19:52;1.10;99.90
15947;DHT22;8072;52.554;7.966;2023-04-03T04:22:18;1.10;99.90
15947;DHT22;8072;52.554;7.966;2023-04-03T04:24:44;1.10;99.90
15947;DHT22;8072;52.554;7.966;2023-04-03T04:27:10;1.00;99.90
15947;DHT22;8072;52.554;7.966;2023-04-03T04:29:36;1.00;99.90
15947;DHT22;8072;52.554;7.966;2023-04-03T04:32:05;1.00;99.90
15947;DHT22;8072;52.554;7.966;2023-04-03T04:34:31;1.00;99.90
15947;DHT22;8072;52.554;7.966;2023-04-03T04:36:57;1.00;99.90
15947;DHT22;8072;52.554;7.966;2023-04-03T04:39:23;1.00;99.90
15947;DHT22;8072;52.554;7.966;2023-04-03T04:41:49;0.90;99.90
15947;DHT22;8072;52.554;7.966;2023-04-03T04:44:16;1.00;99.90
15947;DHT22;8072;52.554;7.966;2023-04-03T04:46:42;1.00;99.90
15947;DHT22;8072;52.554;7.966;2023-04-03T04:49:07;1.00;99.90
15947;DHT22;8072;52.554;7.966;2023-04-03T04:51:33;0.90;99.90
15947;DHT22;8072;52.554;7.966;2023-04-03T04:53:59;0.90;99.90
15947;DHT22;8072;52.554;7.966;2023-04-03T04:56:25;0.90;99.90
15947;DHT22;8072;52.554;7.966;2023-04-03T04:58:50;0.90;99.90
15947;DHT22;8072;52.554;7.966;2023-04-03T05:01:16;0.90;99.90
15947;DHT22;8072;52.554;7.966;2023-04-03T05:03:42;0.90;99.90
15947;DHT22;8072;52.554;7.966;2023-04-03T05:06:08;0.90;99.90
15947;DHT22;8072;52.554;7.966;2023-04-03T05:08:34;0.80;99.90
15947;DHT22;8072;52.554;7.966;2023-04-03T05:11:00;0.80;99.90
15947;DHT22;8072;52.554;7.966;2023-04-03T05:13:26;0.80;99.90
15947;DHT22;8072;52.554;7.966;2023-04-03T05:15:51;0.80;99.90
15947;DHT22;8072;52.554;7.966;2023-04-03T05:18:17;0.80;99.90
15947;DHT22;8072;52.554;7.966;2023-04-03T05:20:43;0.80;99.90
15947;DHT22;8072;52.554;7.966;2023-04-03T05:23:10;0.80;99.90
15947;DHT22;8072;52.554;7.966;2023-04-03T05:25:40;0.80;99.90
15947;DHT22;8072;52.554;7.966;2023-04-03T05:28:06;0.80;99.90
15947;DHT22;8072;52.554;7.966;2023-04-03T05:30:32;0.80;99.90
15947;DHT22;8072;52.554;7.966;2023-04-03T05:32:59;0.80;99.90
15947;DHT22;8072;52.554;7.966;2023-04-03T05:35:24;0.90;99.90
15947;DHT22;8072;52.554;7.966;2023-04-03T05:37:50;0.80;99.90
15947;DHT22;8072;52.554;7.966;2023-04-03T05:40:16;0.80;99.90
15947;DHT22;8072;52.554;7.966;2023-04-03T05:42:42;0.80;99.90
15947;DHT22;8072;52.554;7.966;2023-04-03T05:45:08;0.90;99.90
15947;DHT22;8072;52.554;7.966;2023-04-03T05:47:35;0.90;99.90
15947;DHT22;8072;52.554;7.966;2023-04-03T05:50:01;0.90;99.90
15947;DHT22;8072;52.554;7.966;2023-04-03T05:52:30;0.90;99.90
15947;DHT22;8072;52.554;7.966;2023-04-03T05:54:57;0.90;99.90
15947;DHT22;8072;52.554;7.966;2023-04-03T05:57:23;1.00;99.90
15947;DHT22;8072;52.554;7.966;2023-04-03T05:59:49;1.00;99.90
15947;DHT22;8072;52.554;7.966;2023-04-03T06:02:18;1.00;99.90
15947;DHT22;8072;52.554;7.966;2023-04-03T06:04:44;1.00;99.90
15947;DHT22;8072;52.554;7.966;2023-04-03T06:07:14;1.00;99.90
15947;DHT22;8072;52.554;7.966;2023-04-03T06:09:41;1.00;99.90
15947;DHT22;8072;52.554;7.966;2023-04-03T06:12:08;1.10;99.90
15947;DHT22;8072;52.554;7.966;2023-04-03T06:14:34;1.10;99.90
15947;DHT22;8072;52.554;7.966;2023-04-03T06:17:01;1.10;99.90
15947;DHT22;8072;52.554;7.966;2023-04-03T06:19:27;1.20;99.90
15947;DHT22;8072;52.554;7.966;2023-04-03T06:21:53;1.20;99.90
15947;DHT22;8072;52.554;7.966;2023-04-03T06:24:20;1.20;99.90
15947;DHT22;8072;52.554;7.966;2023-04-03T06:26:47;1.30;99.90
15947;DHT22;8072;52.554;7.966;2023-04-03T06:29:14;1.30;99.90
15947;DHT22;8072;52.554;7.966;2023-04-03T06:31:41;1.30;99.90
15947;DHT22;8072;52.554;7.966;2023-04-03T06:34:07;1.40;99.90
15947;DHT22;8072;52.554;7.966;2023-04-03T06:36:33;1.40;99.90
15947;DHT22;8072;52.554;7.966;2023-04-03T06:39:01;1.40;99.90
15947;DHT22;8072;52.554;7.966;2023-04-03T06:41:28;1.40;99.90
15947;DHT22;8072;52.554;7.966;2023-04-03T06:43:54;1.50;99.90
15947;DHT22;8072;52.554;7.966;2023-04-03T06:46:23;1.60;99.90
15947;DHT22;8072;52.554;7.966;2023-04-03T06:48:49;1.60;99.90
15947;DHT22;8072;52.554;7.966;2023-04-03T06:51:24;1.60;99.90
15947;DHT22;8072;52.554;7.966;2023-04-03T06:53:52;1.70;99.90
15947;DHT22;8072;52.554;7.966;2023-04-03T06:56:18;1.70;99.90
15947;DHT22;8072;52.554;7.966;2023-04-03T06:58:45;1.80;99.90
15947;DHT22;8072;52.554;7.966;2023-04-03T07:01:13;1.80;99.90
15947;DHT22;8072;52.554;7.966;2023-04-03T07:03:40;1.80;99.90
15947;DHT22;8072;52.554;7.966;2023-04-03T07:06:07;1.90;99.90
15947;DHT22;8072;52.554;7.966;2023-04-03T07:08:34;1.90;99.90
15947;DHT22;8072;52.554;7.966;2023-04-03T07:11:00;2.00;99.90
15947;DHT22;8072;52.554;7.966;2023-04-03T07:13:26;2.00;99.90
15947;DHT22;8072;52.554;7.966;2023-04-03T07:15:53;2.10;99.90
15947;DHT22;8072;52.554;7.966;2023-04-03T07:18:19;2.20;99.90
15947;DHT22;8072;52.554;7.966;2023-04-03T07:20:45;2.30;99.90
15947;DHT22;8072;52.554;7.966;2023-04-03T07:23:11;2.30;99.90
15947;DHT22;8072;52.554;7.966;2023-04-03T07:25:41;2.40;99.90
15947;DHT22;8072;52.554;7.966;2023-04-03T07:28:07;2.50;99.90
15947;DHT22;8072;52.554;7.966;2023-04-03T07:30:33;2.60;99.90
15947;DHT22;8072;52.554;7.966;2023-04-03T07:32:59;2.60;99.90
15947;DHT22;8072;52.554;7.966;2023-04-03T07:35:25;2.80;99.90
15947;DHT22;8072;52.554;7.966;2023-04-03T07:37:51;2.80;99.90
15947;DHT22;8072;52.554;7.966;2023-04-03T07:40:16;2.90;99.90
15947;DHT22;8072;52.554;7.966;2023-04-03T07:42:42;3.00;99.90
15947;DHT22;8072;52.554;7.966;2023-04-03T07:45:08;3.10;99.90
15947;DHT22;8072;52.554;7.966;2023-04-03T07:47:34;3.20;99.90
15947;DHT22;8072;52.554;7.966;2023-04-03T07:50:00;3.30;99.90
15947;DHT22;8072;52.554;7.966;2023-04-03T07:52:26;3.40;99.90
15947;DHT22;8072;52.554;7.966;2023-04-03T07:54:52;3.50;99.90
15947;DHT22;8072;52.554;7.966;2023-04-03T07:57:17;3.50;99.90
15947;DHT22;8072;52.554;7.966;2023-04-03T07:59:43;3.60;99.90
15947;DHT22;8072;52.554;7.966;2023-04-03T08:02:10;3.70;99.90
15947;DHT22;8072;52.554;7.966;2023-04-03T08:04:35;3.80;99.90
15947;DHT22;8072;52.554;7.966;2023-04-03T08:07:01;3.90;99.90
15947;DHT22;8072;52.554;7.966;2023-04-03T08:09:27;3.90;99.90
15947;DHT22;8072;52.554;7.966;2023-04-03T08:11:53;3.90;99.90
15947;DHT22;8072;52.554;7.966;2023-04-03T08:14:19;3.90;99.90
15947;DHT22;8072;52.554;7.966;2023-04-03T08:16:46;4.00;99.90
15947;DHT22;8072;52.554;7.966;2023-04-03T08:19:12;4.00;99.90
15947;DHT22;8072;52.554;7.966;2023-04-03T08:21:40;4.10;99.90
15947;DHT22;8072;52.554;7.966;2023-04-03T08:24:07;4.20;99.90
15947;DHT22;8072;52.554;7.966;2023-04-03T08:26:34;4.30;99.90
15947;DHT22;8072;52.554;7.966;2023-04-03T08:28:59;4.30;99.90
15947;DHT22;8072;52.554;7.966;2023-04-03T08:31:25;4.30;99.90
15947;DHT22;8072;52.554;7.966;2023-04-03T08:33:52;4.40;99.90
15947;DHT22;8072;52.554;7.966;2023-04-03T08:36:22;4.40;99.90
15947;DHT22;8072;52.554;7.966;2023-04-03T08:38:49;4.50;99.90
15947;DHT22;8072;52.554;7.966;2023-04-03T08:49:51;4.60;99.90
15947;DHT22;8072;52.554;7.966;2023-04-03T08:52:22;4.70;99.90
15947;DHT22;8072;52.554;7.966;2023-04-03T08:55:02;4.80;99.90
15947;DHT22;8072;52.554;7.966;2023-04-03T08:57:38;5.00;99.90
15947;DHT22;8072;52.554;7.966;2023-04-03T09:00:14;5.00;99.90
15947;DHT22;8072;52.554;7.966;2023-04-03T09:02:47;5.10;99.90
15947;DHT22;8072;52.554;7.966;2023-04-03T09:08:01;5.20;99.90
15947;DHT22;8072;52.554;7.966;2023-04-03T09:10:30;5.20;99.90
15947;DHT22;8072;52.554;7.966;2023-04-03T09:15:47;5.30;99.90
15947;DHT22;8072;52.554;7.966;2023-04-03T09:18:20;5.20;99.90
15947;DHT22;8072;52.554;7.966;2023-04-03T09:21:08;5.20;99.90
15947;DHT22;8072;52.554;7.966;2023-04-03T09:26:36;5.30;99.90
15947;DHT22;8072;52.554;7.966;2023-04-03T09:29:04;5.40;99.90
15947;DHT22;8072;52.554;7.966;2023-04-03T09:31:38;5.50;99.90
15947;DHT22;8072;52.554;7.966;2023-04-03T09:34:23;5.60;99.90
15947;DHT22;8072;52.554;7.966;2023-04-03T09:36:55;5.70;99.90
15947;DHT22;8072;52.554;7.966;2023-04-03T09:39:26;5.80;99.90
15947;DHT22;8072;52.554;7.966;2023-04-03T09:42:03;5.90;99.90
15947;DHT22;8072;52.554;7.966;2023-04-03T09:44:31;5.90;99.90
15947;DHT22;8072;52.554;7.966;2023-04-03T09:46:57;5.90;99.90
15947;DHT22;8072;52.554;7.966;2023-04-03T09:49:23;6.00;99.90
15947;DHT22;8072;52.554;7.966;2023-04-03T09:51:49;6.10;99.90
15947;DHT22;8072;52.554;7.966;2023-04-03T09:54:38;6.20;99.90
15947;DHT22;8072;52.554;7.966;2023-04-03T09:57:13;6.30;99.90
15947;DHT22;8072;52.554;7.966;2023-04-03T09:59:58;6.30;99.90
15947;DHT22;8072;52.554;7.966;2023-04-03T10:02:41;6.40;99.90
15947;DHT22;8072;52.554;7.966;2023-04-03T10:10:47;6.60;99.90
15947;DHT22;8072;52.554;7.966;2023-04-03T10:13:19;6.70;99.90
15947;DHT22;8072;52.554;7.966;2023-04-03T10:16:07;6.90;99.90
15947;DHT22;8072;52.554;7.966;2023-04-03T10:18:45;6.90;99.90
15947;DHT22;8072;52.554;7.966;2023-04-03T10:21:35;7.00;99.90
15947;DHT22;8072;52.554;7.966;2023-04-03T10:29:24;7.20;99.90
15947;DHT22;8072;52.554;7.966;2023-04-03T10:35:39;7.40;99.90
15947;DHT22;8072;52.554;7.966;2023-04-03T10:44:14;7.80;99.90
15947;DHT22;8072;52.554;7.966;2023-04-03T10:55:13;7.80;99.90
15947;DHT22;8072;52.554;7.966;2023-04-03T10:57:45;7.90;99.90
15947;DHT22;8072;52.554;7.966;2023-04-03T11:00:20;7.80;99.90
15947;DHT22;8072;52.554;7.966;2023-04-03T11:03:03;7.90;99.90
15947;DHT22;8072;52.554;7.966;2023-04-03T11:07:56;8.00;99.90
15947;DHT22;8072;52.554;7.966;2023-04-03T11:10:46;8.20;99.90
15947;DHT22;8072;52.554;7.966;2023-04-03T11:13:19;8.30;99.90
15947;DHT22;8072;52.554;7.966;2023-04-03T11:15:46;8.40;99.90
15947;DHT22;8072;52.554;7.966;2023-04-03T11:18:21;8.60;99.90
15947;DHT22;8072;52.554;7.966;2023-04-03T11:20:57;9.00;99.90
15947;DHT22;8072;52.554;7.966;2023-04-03T11:23:34;9.40;99.90
15947;DHT22;8072;52.554;7.966;2023-04-03T11:26:13;9.80;99.90
15947;DHT22;8072;52.554;7.966;2023-04-03T11:28:40;9.90;99.90
15947;DHT22;8072;52.554;7.966;2023-04-03T11:33:58;9.90;99.90
15947;DHT22;8072;52.554;7.966;2023-04-03T11:36:38;10.00;99.90
15947;DHT22;8072;52.554;7.966;2023-04-03T11:39:29;10.00;99.90
15947;DHT22;8072;52.554;7.966;2023-04-03T11:42:39;10.10;99.90
15947;DHT22;8072;52.554;7.966;2023-04-03T11:48:04;10.40;99.90
15947;DHT22;8072;52.554;7.966;2023-04-03T12:05:49;9.30;99.90
15947;DHT22;8072;52.554;7.966;2023-04-03T12:08:24;9.20;99.90
15947;DHT22;8072;52.554;7.966;2023-04-03T12:13:42;9.20;99.90
15947;DHT22;8072;52.554;7.966;2023-04-03T12:19:29;10.00;99.90
15947;DHT22;8072;52.554;7.966;2023-04-03T12:24:30;10.80;99.90
15947;DHT22;8072;52.554;7.966;2023-04-03T12:29:51;11.50;99.90
15947;DHT22;8072;52.554;7.966;2023-04-03T12:40:24;11.90;99.90
15947;DHT22;8072;52.554;7.966;2023-04-03T12:48:26;12.60;99.90
15947;DHT22;8072;52.554;7.966;2023-04-03T12:50:54;12.40;99.90
15947;DHT22;8072;52.554;7.966;2023-04-03T12:53:41;11.90;99.90
15947;DHT22;8072;52.554;7.966;2023-04-03T12:56:27;11.40;99.90
15947;DHT22;8072;52.554;7.966;2023-04-03T12:58:56;11.40;99.90
15947;DHT22;8072;52.554;7.966;2023-04-03T13:01:24;11.50;99.90
15947;DHT22;8072;52.554;7.966;2023-04-03T13:03:56;11.50;99.90
15947;DHT22;8072;52.554;7.966;2023-04-03T13:06:41;11.90;99.90
15947;DHT22;8072;52.554;7.966;2023-04-03T13:09:23;12.30;99.90
15947;DHT22;8072;52.554;7.966;2023-04-03T13:12:03;12.60;99.90
15947;DHT22;8072;52.554;7.966;2023-04-03T13:14:30;12.90;99.90
15947;DHT22;8072;52.554;7.966;2023-04-03T13:17:16;13.10;99.90
15947;DHT22;8072;52.554;7.966;2023-04-03T13:19:44;13.20;99.90
15947;DHT22;8072;52.554;7.966;2023-04-03T13:22:34;13.30;99.90
15947;DHT22;8072;52.554;7.966;2023-04-03T13:25:07;13.40;99.90
15947;DHT22;8072;52.554;7.966;2023-04-03T13:27:35;13.50;99.90
15947;DHT22;8072;52.554;7.966;2023-04-03T13:30:03;13.50;99.90
15947;DHT22;8072;52.554;7.966;2023-04-03T13:32:31;13.30;99.90
15947;DHT22;8072;52.554;7.966;2023-04-03T13:34:58;13.30;99.90
15947;DHT22;8072;52.554;7.966;2023-04-03T13:37:30;13.20;99.90
15947;DHT22;8072;52.554;7.966;2023-04-03T13:40:11;12.80;99.90
15947;DHT22;8072;52.554;7.966;2023-04-03T13:42:39;12.50;99.90
15947;DHT22;8072;52.554;7.966;2023-04-03T13:47:39;11.70;99.90
15947;DHT22;8072;52.554;7.966;2023-04-03T13:52:51;11.60;99.90
15947;DHT22;8072;52.554;7.966;2023-04-03T13:58:01;12.30;99.90
15947;DHT22;8072;52.554;7.966;2023-04-03T14:00:55;12.60;99.90
15947;DHT22;8072;52.554;7.966;2023-04-03T14:03:40;12.70;99.90
15947;DHT22;8072;52.554;7.966;2023-04-03T14:06:08;12.90;99.90
15947;DHT22;8072;52.554;7.966;2023-04-03T14:08:35;13.10;99.90
15947;DHT22;8072;52.554;7.966;2023-04-03T14:11:01;13.20;99.90
15947;DHT22;8072;52.554;7.966;2023-04-03T14:13:30;13.10;99.90
15947;DHT22;8072;52.554;7.966;2023-04-03T14:15:56;13.10;99.90
15947;DHT22;8072;52.554;7.966;2023-04-03T14:18:22;13.10;99.90
15947;DHT22;8072;52.554;7.966;2023-04-03T14:20:48;13.10;99.90
15947;DHT22;8072;52.554;7.966;2023-04-03T14:23:14;13.00;99.90
15947;DHT22;8072;52.554;7.966;2023-04-03T14:25:41;12.70;99.90
15947;DHT22;8072;52.554;7.966;2023-04-03T14:28:19;12.30;99.90
15947;DHT22;8072;52.554;7.966;2023-04-03T14:30:47;11.90;99.90
15947;DHT22;8072;52.554;7.966;2023-04-03T14:33:16;11.60;99.90
15947;DHT22;8072;52.554;7.966;2023-04-03T14:35:43;11.60;99.90
15947;DHT22;8072;52.554;7.966;2023-04-03T14:38:35;11.80;99.90
15947;DHT22;8072;52.554;7.966;2023-04-03T14:41:04;12.10;99.90
15947;DHT22;8072;52.554;7.966;2023-04-03T14:43:30;12.30;99.90
15947;DHT22;8072;52.554;7.966;2023-04-03T14:45:56;12.50;99.90
15947;DHT22;8072;52.554;7.966;2023-04-03T14:48:24;12.60;99.90
15947;DHT22;8072;52.554;7.966;2023-04-03T14:50:52;12.90;99.90
15947;DHT22;8072;52.554;7.966;2023-04-03T14:53:20;13.00;99.90
15947;DHT22;8072;52.554;7.966;2023-04-03T14:55:52;13.10;99.90
15947;DHT22;8072;52.554;7.966;2023-04-03T14:58:20;12.90;99.90
15947;DHT22;8072;52.554;7.966;2023-04-03T15:00:46;12.70;99.90
15947;DHT22;8072;52.554;7.966;2023-04-03T15:03:17;12.50;99.90
15947;DHT22;8072;52.554;7.966;2023-04-03T15:05:45;12.30;99.90
15947;DHT22;8072;52.554;7.966;2023-04-03T15:08:21;12.10;99.90
15947;DHT22;8072;52.554;7.966;2023-04-03T15:10:49;12.00;99.90
15947;DHT22;8072;52.554;7.966;2023-04-03T15:13:18;12.00;99.90
15947;DHT22;8072;52.554;7.966;2023-04-03T15:15:44;12.10;99.90
15947;DHT22;8072;52.554;7.966;2023-04-03T15:18:16;12.30;99.90
15947;DHT22;8072;52.554;7.966;2023-04-03T15:20:43;12.40;99.90
15947;DHT22;8072;52.554;7.966;2023-04-03T15:23:11;12.50;99.90
15947;DHT22;8072;52.554;7.966;2023-04-03T15:25:37;12.40;99.90
15947;DHT22;8072;52.554;7.966;2023-04-03T15:28:05;12.30;99.90
15947;DHT22;8072;52.554;7.966;2023-04-03T15:30:31;12.00;99.90
15947;DHT22;8072;52.554;7.966;2023-04-03T15:32:57;11.80;99.90
15947;DHT22;8072;52.554;7.966;2023-04-03T15:35:23;11.70;99.90
15947;DHT22;8072;52.554;7.966;2023-04-03T15:37:53;11.80;99.90
15947;DHT22;8072;52.554;7.966;2023-04-03T15:40:19;11.70;99.90
15947;DHT22;8072;52.554;7.966;2023-04-03T15:42:45;11.70;99.90
15947;DHT22;8072;52.554;7.966;2023-04-03T15:45:11;11.80;99.90
15947;DHT22;8072;52.554;7.966;2023-04-03T15:47:37;11.70;99.90
15947;DHT22;8072;52.554;7.966;2023-04-03T15:50:03;11.70;99.90
15947;DHT22;8072;52.554;7.966;2023-04-03T15:52:32;11.80;99.90
15947;DHT22;8072;52.554;7.966;2023-04-03T15:54:58;11.80;99.90
15947;DHT22;8072;52.554;7.966;2023-04-03T15:57:23;11.80;99.90
15947;DHT22;8072;52.554;7.966;2023-04-03T15:59:52;11.70;99.90
15947;DHT22;8072;52.554;7.966;2023-04-03T16:02:18;11.70;99.90
15947;DHT22;8072;52.554;7.966;2023-04-03T16:04:44;11.60;99.90
15947;DHT22;8072;52.554;7.966;2023-04-03T16:07:10;11.60;99.90
15947;DHT22;8072;52.554;7.966;2023-04-03T16:09:39;11.40;99.90
15947;DHT22;8072;52.554;7.966;2023-04-03T16:12:05;11.20;99.90
15947;DHT22;8072;52.554;7.966;2023-04-03T16:14:31;11.10;99.90
15947;DHT22;8072;52.554;7.966;2023-04-03T16:16:58;11.00;99.90
15947;DHT22;8072;52.554;7.966;2023-04-03T16:19:24;10.80;99.90
15947;DHT22;8072;52.554;7.966;2023-04-03T16:21:50;10.70;99.90
15947;DHT22;8072;52.554;7.966;2023-04-03T16:24:16;10.60;99.90
15947;DHT22;8072;52.554;7.966;2023-04-03T16:26:41;10.50;99.90
15947;DHT22;8072;52.554;7.966;2023-04-03T16:29:07;10.30;99.90
15947;DHT22;8072;52.554;7.966;2023-04-03T16:31:33;10.30;99.90
15947;DHT22;8072;52.554;7.966;2023-04-03T16:34:01;10.10;99.90
15947;DHT22;8072;52.554;7.966;2023-04-03T16:36:26;10.20;99.90
15947;DHT22;8072;52.554;7.966;2023-04-03T16:38:52;10.10;99.90
15947;DHT22;8072;52.554;7.966;2023-04-03T16:41:18;10.10;99.90
15947;DHT22;8072;52.554;7.966;2023-04-03T16:43:44;10.10;99.90
15947;DHT22;8072;52.554;7.966;2023-04-03T16:46:09;10.00;99.90
15947;DHT22;8072;52.554;7.966;2023-04-03T16:48:35;9.80;99.90
15947;DHT22;8072;52.554;7.966;2023-04-03T16:51:01;9.70;99.90
15947;DHT22;8072;52.554;7.966;2023-04-03T16:53:27;9.60;99.90
15947;DHT22;8072;52.554;7.966;2023-04-03T16:55:53;9.60;99.90
15947;DHT22;8072;52.554;7.966;2023-04-03T16:58:20;9.40;99.90
15947;DHT22;8072;52.554;7.966;2023-04-03T17:00:46;9.40;99.90
15947;DHT22;8072;52.554;7.966;2023-04-03T17:03:12;9.40;99.90
15947;DHT22;8072;52.554;7.966;2023-04-03T17:05:38;9.20;99.90
15947;DHT22;8072;52.554;7.966;2023-04-03T17:08:04;9.20;99.90
15947;DHT22;8072;52.554;7.966;2023-04-03T17:10:30;9.10;99.90
15947;DHT22;8072;52.554;7.966;2023-04-03T17:12:55;9.00;99.90
15947;DHT22;8072;52.554;7.966;2023-04-03T17:15:22;8.90;99.90
15947;DHT22;8072;52.554;7.966;2023-04-03T17:17:50;8.90;99.90
15947;DHT22;8072;52.554;7.966;2023-04-03T17:20:16;8.80;99.90
15947;DHT22;8072;52.554;7.966;2023-04-03T17:22:42;8.90;99.90
15947;DHT22;8072;52.554;7.966;2023-04-03T17:25:10;8.90;99.90
15947;DHT22;8072;52.554;7.966;2023-04-03T17:27:35;8.90;99.90
15947;DHT22;8072;52.554;7.966;2023-04-03T17:30:02;9.00;99.90
15947;DHT22;8072;52.554;7.966;2023-04-03T17:32:28;9.00;99.90
15947;DHT22;8072;52.554;7.966;2023-04-03T17:34:54;9.00;99.90
15947;DHT22;8072;52.554;7.966;2023-04-03T17:37:20;9.00;99.90
15947;DHT22;8072;52.554;7.966;2023-04-03T17:39:46;8.90;99.90
15947;DHT22;8072;52.554;7.966;2023-04-03T17:42:12;8.80;99.90
15947;DHT22;8072;52.554;7.966;2023-04-03T17:44:38;8.70;99.90
15947;DHT22;8072;52.554;7.966;2023-04-03T17:47:05;8.60;99.90
15947;DHT22;8072;52.554;7.966;2023-04-03T17:49:31;8.50;99.90
15947;DHT22;8072;52.554;7.966;2023-04-03T17:51:58;8.40;99.90
15947;DHT22;8072;52.554;7.966;2023-04-03T17:54:24;8.30;99.90
15947;DHT22;8072;52.554;7.966;2023-04-03T17:56:51;8.30;99.90
15947;DHT22;8072;52.554;7.966;2023-04-03T17:59:17;8.20;99.90
15947;DHT22;8072;52.554;7.966;2023-04-03T18:01:45;8.10;99.90
15947;DHT22;8072;52.554;7.966;2023-04-03T18:04:12;8.00;99.90